createdAt,value
2018-12-31T00:00:50.434Z,0.00
2018-12-31T00:01:50.358Z,0.00
2018-12-31T00:02:50.323Z,0.00
2018-12-31T00:03:50.290Z,0.00
2018-12-31T00:04:50.246Z,0.00
2018-12-31T00:05:51.043Z,0.00
2018-12-31T00:06:50.156Z,0.00
2018-12-31T00:07:50.128Z,0.00
2018-12-31T00:08:50.088Z,0.00
2018-12-31T00:09:50.022Z,0.00
2018-12-31T00:10:49.990Z,0.00
2018-12-31T00:11:50.006Z,0.00
2018-12-31T00:12:49.903Z,0.00
2018-12-31T00:13:49.891Z,0.00
2018-12-31T00:14:49.831Z,0.00
2018-12-31T00:15:49.766Z,0.00
2018-12-31T00:16:49.731Z,0.00
2018-12-31T00:17:49.703Z,0.00
2018-12-31T00:18:49.648Z,0.00
2018-12-31T00:19:49.617Z,0.00
2018-12-31T00:20:49.564Z,0.00
2018-12-31T00:21:49.527Z,0.00
2018-12-31T00:22:49.476Z,0.00
2018-12-31T00:23:49.453Z,0.00
2018-12-31T00:24:49.402Z,0.00
2018-12-31T00:25:49.372Z,0.00
2018-12-31T00:26:49.356Z,0.00
2018-12-31T00:27:49.310Z,0.00
2018-12-31T00:28:49.273Z,0.00
2018-12-31T00:29:49.189Z,0.00
2018-12-31T00:30:49.159Z,0.00
2018-12-31T00:31:49.112Z,0.00
2018-12-31T00:32:49.060Z,0.00
2018-12-31T00:33:49.040Z,0.00
2018-12-31T00:34:48.988Z,0.00
2018-12-31T00:35:48.944Z,0.00
2018-12-31T00:36:48.914Z,0.00
2018-12-31T00:37:48.875Z,0.00
2018-12-31T00:38:48.842Z,0.00
2018-12-31T00:39:48.778Z,0.00
2018-12-31T00:40:48.775Z,0.00
2018-12-31T00:41:48.696Z,0.00
2018-12-31T00:42:48.650Z,0.00
2018-12-31T00:43:48.617Z,0.00
2018-12-31T00:44:48.570Z,0.00
2018-12-31T00:45:48.521Z,0.00
2018-12-31T00:46:48.494Z,0.00
2018-12-31T00:47:48.492Z,0.00
2018-12-31T00:48:48.445Z,0.00
2018-12-31T00:49:48.364Z,0.00
2018-12-31T00:50:48.370Z,0.00
2018-12-31T00:51:48.286Z,0.00
2018-12-31T00:52:48.237Z,0.00
2018-12-31T00:53:48.206Z,0.00
2018-12-31T00:54:48.178Z,0.00
2018-12-31T00:55:48.130Z,0.00
2018-12-31T00:56:48.118Z,0.00
2018-12-31T00:57:48.021Z,0.00
2018-12-31T00:58:48.048Z,0.00
2018-12-31T00:59:47.969Z,0.00
2018-12-31T01:00:47.960Z,0.00
2018-12-31T01:01:47.886Z,0.00
2018-12-31T01:02:47.856Z,0.00
2018-12-31T01:03:47.789Z,0.00
2018-12-31T01:04:47.741Z,0.00
2018-12-31T01:05:47.713Z,0.00
2018-12-31T01:06:47.653Z,0.00
2018-12-31T01:07:47.609Z,0.00
2018-12-31T01:08:47.570Z,0.00
2018-12-31T01:09:47.530Z,0.00
2018-12-31T01:10:47.485Z,0.00
2018-12-31T01:11:47.452Z,0.00
2018-12-31T01:12:47.402Z,0.00
2018-12-31T01:13:47.447Z,0.00
2018-12-31T01:14:47.336Z,0.00
2018-12-31T01:15:47.279Z,0.00
2018-12-31T01:16:47.271Z,0.00
2018-12-31T01:17:47.207Z,0.00
2018-12-31T01:18:47.150Z,0.00
2018-12-31T01:19:47.135Z,0.00
2018-12-31T01:20:47.102Z,0.00
2018-12-31T01:21:47.037Z,0.00
2018-12-31T01:22:46.986Z,0.00
2018-12-31T01:23:46.944Z,0.00
2018-12-31T01:24:46.897Z,0.00
2018-12-31T01:25:46.880Z,0.00
2018-12-31T01:26:46.830Z,0.00
2018-12-31T01:27:46.789Z,0.00
2018-12-31T01:28:46.744Z,0.00
2018-12-31T01:29:46.707Z,0.00
2018-12-31T01:30:46.664Z,0.00
2018-12-31T01:31:46.637Z,0.00
2018-12-31T01:32:46.562Z,0.00
2018-12-31T01:33:46.541Z,0.00
2018-12-31T01:34:46.483Z,0.00
2018-12-31T01:35:46.479Z,0.00
2018-12-31T01:36:46.410Z,0.00
2018-12-31T01:37:46.460Z,0.00
2018-12-31T01:38:46.336Z,0.00
2018-12-31T01:39:46.284Z,0.00
2018-12-31T01:40:46.237Z,0.00
2018-12-31T01:41:46.205Z,0.00
2018-12-31T01:42:46.160Z,0.00
2018-12-31T01:43:46.112Z,0.00
2018-12-31T01:44:46.092Z,0.00
2018-12-31T01:45:46.033Z,0.00
2018-12-31T01:46:45.995Z,0.00
2018-12-31T01:47:45.943Z,0.00
2018-12-31T01:48:45.914Z,0.00
2018-12-31T01:49:45.872Z,0.00
2018-12-31T01:50:45.841Z,0.00
2018-12-31T01:51:45.791Z,0.00
2018-12-31T01:52:45.758Z,0.00
2018-12-31T01:53:45.722Z,0.00
2018-12-31T01:54:45.662Z,0.00
2018-12-31T01:55:45.630Z,0.00
2018-12-31T01:56:45.586Z,0.00
2018-12-31T01:57:45.530Z,0.00
2018-12-31T01:58:45.494Z,0.00
2018-12-31T01:59:45.451Z,0.00
2018-12-31T02:00:45.420Z,0.00
2018-12-31T02:01:45.370Z,0.00
2018-12-31T02:02:45.356Z,0.00
2018-12-31T02:03:45.293Z,0.00
2018-12-31T02:04:45.247Z,0.00
2018-12-31T02:05:45.205Z,0.00
2018-12-31T02:06:45.183Z,0.00
2018-12-31T02:07:45.140Z,0.00
2018-12-31T02:08:45.092Z,0.00
2018-12-31T02:09:45.042Z,0.00
2018-12-31T02:10:44.996Z,0.00
2018-12-31T02:11:44.955Z,0.00
2018-12-31T02:12:44.911Z,0.00
2018-12-31T02:13:44.875Z,0.00
2018-12-31T02:14:44.843Z,0.00
2018-12-31T02:15:44.800Z,0.00
2018-12-31T02:16:44.741Z,0.00
2018-12-31T02:17:44.712Z,0.00
2018-12-31T02:18:45.593Z,0.00
2018-12-31T02:19:44.633Z,0.00
2018-12-31T02:20:44.594Z,0.00
2018-12-31T02:21:44.533Z,0.00
2018-12-31T02:22:44.499Z,0.00
2018-12-31T02:23:44.524Z,0.00
2018-12-31T02:24:44.413Z,0.00
2018-12-31T02:25:44.435Z,0.00
2018-12-31T02:26:44.322Z,0.00
2018-12-31T02:27:44.295Z,0.00
2018-12-31T02:28:44.360Z,0.00
2018-12-31T02:29:44.241Z,0.00
2018-12-31T02:30:44.197Z,0.00
2018-12-31T02:31:44.132Z,0.00
2018-12-31T02:32:44.104Z,0.00
2018-12-31T02:33:44.057Z,0.00
2018-12-31T02:34:43.994Z,0.00
2018-12-31T02:35:43.983Z,0.00
2018-12-31T02:36:43.960Z,0.00
2018-12-31T02:37:43.890Z,0.00
2018-12-31T02:38:43.836Z,0.00
2018-12-31T02:39:43.809Z,0.00
2018-12-31T02:40:43.821Z,0.00
2018-12-31T02:41:43.737Z,0.00
2018-12-31T02:42:43.674Z,0.00
2018-12-31T02:43:43.624Z,0.00
2018-12-31T02:44:43.589Z,0.00
2018-12-31T02:45:43.556Z,0.00
2018-12-31T02:46:43.500Z,0.00
2018-12-31T02:47:43.468Z,0.00
2018-12-31T02:48:43.406Z,0.00
2018-12-31T02:49:43.375Z,0.00
2018-12-31T02:50:43.336Z,0.00
2018-12-31T02:51:43.310Z,0.00
2018-12-31T02:52:43.257Z,0.00
2018-12-31T02:53:43.221Z,0.00
2018-12-31T02:54:43.213Z,0.00
2018-12-31T02:55:43.139Z,0.00
2018-12-31T02:56:43.211Z,0.00
2018-12-31T02:57:43.047Z,0.00
2018-12-31T02:58:43.008Z,0.00
2018-12-31T02:59:42.961Z,0.00
2018-12-31T03:00:42.924Z,0.00
2018-12-31T03:01:42.882Z,0.00
2018-12-31T03:02:42.847Z,0.00
2018-12-31T03:03:42.802Z,0.00
2018-12-31T03:04:42.753Z,0.00
2018-12-31T03:05:42.710Z,0.00
2018-12-31T03:06:42.669Z,0.00
2018-12-31T03:07:42.635Z,0.00
2018-12-31T03:08:42.573Z,0.00
2018-12-31T03:09:42.555Z,0.00
2018-12-31T03:10:42.582Z,0.00
2018-12-31T03:11:42.453Z,0.00
2018-12-31T03:12:42.427Z,0.00
2018-12-31T03:13:42.374Z,0.00
2018-12-31T03:14:42.383Z,0.00
2018-12-31T03:15:42.299Z,0.00
2018-12-31T03:16:42.272Z,0.00
2018-12-31T03:17:42.219Z,0.00
2018-12-31T03:18:42.157Z,0.00
2018-12-31T03:19:42.130Z,0.00
2018-12-31T03:20:42.088Z,0.00
2018-12-31T03:21:42.090Z,0.00
2018-12-31T03:22:42.003Z,0.00
2018-12-31T03:23:41.965Z,0.00
2018-12-31T03:24:41.921Z,0.00
2018-12-31T03:25:41.881Z,0.00
2018-12-31T03:26:41.881Z,0.00
2018-12-31T03:27:41.796Z,0.00
2018-12-31T03:28:41.753Z,0.00
2018-12-31T03:29:41.710Z,0.00
2018-12-31T03:30:41.677Z,0.00
2018-12-31T03:31:41.656Z,0.00
2018-12-31T03:32:41.589Z,0.00
2018-12-31T03:33:41.543Z,0.00
2018-12-31T03:34:41.505Z,0.00
2018-12-31T03:35:41.467Z,0.00
2018-12-31T03:36:41.448Z,0.00
2018-12-31T03:37:41.392Z,0.00
2018-12-31T03:38:41.338Z,0.00
2018-12-31T03:39:41.296Z,0.00
2018-12-31T03:40:41.250Z,0.00
2018-12-31T03:41:41.217Z,0.00
2018-12-31T03:42:41.181Z,0.00
2018-12-31T03:43:41.163Z,0.00
2018-12-31T03:44:41.102Z,0.00
2018-12-31T03:45:41.050Z,0.00
2018-12-31T03:46:41.003Z,0.00
2018-12-31T03:47:40.997Z,0.00
2018-12-31T03:48:40.922Z,0.00
2018-12-31T03:49:40.876Z,0.00
2018-12-31T03:50:40.848Z,0.00
2018-12-31T03:51:40.797Z,0.00
2018-12-31T03:52:40.760Z,0.00
2018-12-31T03:53:40.714Z,0.00
2018-12-31T03:54:40.676Z,0.00
2018-12-31T03:55:40.625Z,0.00
2018-12-31T03:56:40.587Z,0.00
2018-12-31T03:57:40.575Z,0.00
2018-12-31T03:58:40.530Z,0.00
2018-12-31T03:59:40.471Z,0.00
2018-12-31T04:00:40.432Z,0.00
2018-12-31T04:01:40.390Z,0.00
2018-12-31T04:02:40.343Z,0.00
2018-12-31T04:03:40.304Z,0.00
2018-12-31T04:04:40.270Z,0.00
2018-12-31T04:05:40.207Z,0.00
2018-12-31T04:06:40.182Z,0.00
2018-12-31T04:07:40.140Z,0.00
2018-12-31T04:08:40.112Z,0.00
2018-12-31T04:09:40.123Z,0.00
2018-12-31T04:10:40.064Z,0.00
2018-12-31T04:11:39.978Z,0.00
2018-12-31T04:12:39.938Z,0.00
2018-12-31T04:13:39.895Z,0.00
2018-12-31T04:14:39.841Z,0.00
2018-12-31T04:15:39.818Z,0.00
2018-12-31T04:16:39.770Z,0.00
2018-12-31T04:17:39.735Z,0.00
2018-12-31T04:18:39.690Z,0.00
2018-12-31T04:19:39.647Z,0.00
2018-12-31T04:20:39.597Z,0.00
2018-12-31T04:21:39.545Z,0.00
2018-12-31T04:22:39.523Z,0.00
2018-12-31T04:23:39.469Z,0.00
2018-12-31T04:24:39.439Z,0.00
2018-12-31T04:25:39.385Z,0.00
2018-12-31T04:26:39.350Z,0.00
2018-12-31T04:27:39.302Z,0.00
2018-12-31T04:28:39.257Z,0.00
2018-12-31T04:29:39.225Z,0.00
2018-12-31T04:30:39.181Z,0.00
2018-12-31T04:31:39.146Z,0.00
2018-12-31T04:32:39.108Z,0.00
2018-12-31T04:33:39.082Z,0.00
2018-12-31T04:34:38.999Z,0.00
2018-12-31T04:35:38.966Z,0.00
2018-12-31T04:36:39.003Z,0.00
2018-12-31T04:37:38.900Z,0.00
2018-12-31T04:38:38.853Z,0.00
2018-12-31T04:39:38.820Z,0.00
2018-12-31T04:40:38.783Z,0.00
2018-12-31T04:41:38.736Z,0.00
2018-12-31T04:42:38.694Z,0.00
2018-12-31T04:43:38.673Z,0.00
2018-12-31T04:44:38.603Z,0.00
2018-12-31T04:45:38.557Z,0.00
2018-12-31T04:46:38.553Z,0.00
2018-12-31T04:47:38.511Z,0.00
2018-12-31T04:48:38.436Z,0.00
2018-12-31T04:49:38.406Z,0.00
2018-12-31T04:50:38.343Z,0.00
2018-12-31T04:51:38.322Z,0.00
2018-12-31T04:52:38.269Z,0.00
2018-12-31T04:53:38.230Z,0.00
2018-12-31T04:54:38.191Z,0.00
2018-12-31T04:55:44.219Z,0.00
2018-12-31T04:56:38.102Z,0.00
2018-12-31T04:57:38.050Z,0.00
2018-12-31T04:58:38.018Z,0.00
2018-12-31T04:59:37.999Z,0.00
2018-12-31T05:00:37.926Z,0.00
2018-12-31T05:01:37.904Z,0.00
2018-12-31T05:02:37.853Z,0.00
2018-12-31T05:03:37.817Z,0.00
2018-12-31T05:04:37.756Z,0.00
2018-12-31T05:05:37.733Z,0.00
2018-12-31T05:06:37.699Z,0.00
2018-12-31T05:07:37.662Z,0.00
2018-12-31T05:08:37.616Z,0.00
2018-12-31T05:09:37.579Z,0.00
2018-12-31T05:10:37.517Z,0.00
2018-12-31T05:11:37.517Z,0.00
2018-12-31T05:12:37.457Z,0.00
2018-12-31T05:13:37.403Z,0.00
2018-12-31T05:14:37.351Z,0.00
2018-12-31T05:15:37.392Z,0.00
2018-12-31T05:16:37.271Z,0.00
2018-12-31T05:17:37.235Z,0.00
2018-12-31T05:18:37.194Z,0.00
2018-12-31T05:19:37.142Z,0.00
2018-12-31T05:20:37.107Z,0.00
2018-12-31T05:21:37.116Z,0.00
2018-12-31T05:22:37.090Z,0.00
2018-12-31T05:23:36.985Z,0.00
2018-12-31T05:24:36.951Z,0.00
2018-12-31T05:25:36.913Z,0.00
2018-12-31T05:26:36.870Z,0.00
2018-12-31T05:27:36.840Z,0.00
2018-12-31T05:28:36.773Z,0.00
2018-12-31T05:29:36.727Z,0.00
2018-12-31T05:30:36.698Z,0.00
2018-12-31T05:31:36.647Z,0.00
2018-12-31T05:32:36.606Z,0.00
2018-12-31T05:33:36.576Z,0.00
2018-12-31T05:34:36.519Z,0.00
2018-12-31T05:35:36.489Z,0.00
2018-12-31T05:36:36.442Z,0.00
2018-12-31T05:37:36.405Z,0.00
2018-12-31T05:38:36.369Z,0.00
2018-12-31T05:39:36.342Z,0.00
2018-12-31T05:40:36.276Z,0.00
2018-12-31T05:41:36.241Z,0.00
2018-12-31T05:42:36.191Z,0.00
2018-12-31T05:43:36.169Z,0.00
2018-12-31T05:44:36.111Z,0.00
2018-12-31T05:45:36.077Z,0.00
2018-12-31T05:46:36.049Z,0.00
2018-12-31T05:47:36.033Z,0.00
2018-12-31T05:48:35.956Z,0.00
2018-12-31T05:49:35.926Z,0.00
2018-12-31T05:50:35.879Z,0.00
2018-12-31T05:51:35.820Z,0.00
2018-12-31T05:52:35.786Z,0.00
2018-12-31T05:53:35.739Z,0.00
2018-12-31T05:54:35.718Z,0.00
2018-12-31T05:55:35.671Z,0.00
2018-12-31T05:56:35.635Z,0.00
2018-12-31T05:57:35.573Z,0.00
2018-12-31T05:58:35.555Z,0.00
2018-12-31T05:59:35.510Z,0.00
2018-12-31T06:00:35.477Z,0.00
2018-12-31T06:01:35.417Z,0.00
2018-12-31T06:02:35.376Z,0.00
2018-12-31T06:03:35.332Z,0.00
2018-12-31T06:04:35.286Z,0.00
2018-12-31T06:05:35.257Z,0.00
2018-12-31T06:06:35.199Z,0.00
2018-12-31T06:07:35.163Z,0.00
2018-12-31T06:08:35.126Z,0.00
2018-12-31T06:09:35.091Z,0.00
2018-12-31T06:10:35.044Z,0.00
2018-12-31T06:11:34.988Z,0.00
2018-12-31T06:12:34.953Z,0.00
2018-12-31T06:13:34.917Z,0.00
2018-12-31T06:14:34.862Z,0.00
2018-12-31T06:15:34.843Z,0.00
2018-12-31T06:16:34.794Z,0.00
2018-12-31T06:17:34.745Z,0.00
2018-12-31T06:18:34.710Z,0.00
2018-12-31T06:19:34.683Z,0.00
2018-12-31T06:20:34.643Z,0.00
2018-12-31T06:21:34.587Z,0.00
2018-12-31T06:22:34.627Z,0.00
2018-12-31T06:23:34.505Z,0.00
2018-12-31T06:24:34.461Z,0.00
2018-12-31T06:25:34.417Z,0.00
2018-12-31T06:26:34.407Z,0.00
2018-12-31T06:27:34.345Z,0.00
2018-12-31T06:28:34.315Z,0.00
2018-12-31T06:29:34.264Z,0.00
2018-12-31T06:30:34.239Z,0.00
2018-12-31T06:31:34.173Z,0.00
2018-12-31T06:32:34.139Z,0.00
2018-12-31T06:33:34.091Z,0.00
2018-12-31T06:34:34.067Z,0.00
2018-12-31T06:35:34.023Z,0.00
2018-12-31T06:36:33.966Z,0.00
2018-12-31T06:37:33.935Z,0.00
2018-12-31T06:38:33.906Z,0.00
2018-12-31T06:39:33.869Z,0.00
2018-12-31T06:40:33.807Z,0.00
2018-12-31T06:41:33.766Z,0.00
2018-12-31T06:42:33.733Z,4.00
2018-12-31T06:43:33.678Z,4.00
2018-12-31T06:44:33.668Z,4.00
2018-12-31T06:45:33.621Z,0.00
2018-12-31T06:46:33.559Z,4.00
2018-12-31T06:47:33.508Z,4.00
2018-12-31T06:48:33.471Z,4.00
2018-12-31T06:49:33.438Z,4.00
2018-12-31T06:50:33.406Z,4.00
2018-12-31T06:51:33.340Z,4.00
2018-12-31T06:52:33.389Z,4.00
2018-12-31T06:53:33.261Z,8.00
2018-12-31T06:54:33.228Z,8.00
2018-12-31T06:55:33.173Z,8.00
2018-12-31T06:56:33.172Z,8.00
2018-12-31T06:57:33.098Z,12.00
2018-12-31T06:58:33.102Z,16.00
2018-12-31T06:59:33.023Z,16.00
2018-12-31T07:00:32.978Z,20.00
2018-12-31T07:01:32.932Z,20.00
2018-12-31T07:02:32.947Z,20.00
2018-12-31T07:03:32.855Z,24.00
2018-12-31T07:04:32.832Z,28.00
2018-12-31T07:05:32.772Z,36.00
2018-12-31T07:06:32.722Z,40.00
2018-12-31T07:07:32.739Z,44.00
2018-12-31T07:08:32.633Z,48.00
2018-12-31T07:09:32.599Z,48.00
2018-12-31T07:10:32.560Z,56.00
2018-12-31T07:11:32.522Z,64.00
2018-12-31T07:12:32.495Z,72.00
2018-12-31T07:13:32.454Z,80.00
2018-12-31T07:14:32.425Z,96.00
2018-12-31T07:15:32.374Z,116.00
2018-12-31T07:16:32.357Z,136.00
2018-12-31T07:17:32.327Z,160.00
2018-12-31T07:18:32.272Z,180.00
2018-12-31T07:19:32.200Z,192.00
2018-12-31T07:20:32.169Z,192.00
2018-12-31T07:21:32.115Z,192.00
2018-12-31T07:22:32.070Z,208.00
2018-12-31T07:23:32.013Z,224.00
2018-12-31T07:24:34.645Z,232.00
2018-12-31T07:25:33.436Z,236.00
2018-12-31T07:26:32.371Z,236.00
2018-12-31T07:27:34.955Z,236.00
2018-12-31T07:28:33.636Z,256.00
2018-12-31T07:29:31.895Z,280.00
2018-12-31T07:30:31.726Z,308.00
2018-12-31T07:31:31.690Z,320.00
2018-12-31T07:32:31.658Z,316.00
2018-12-31T07:33:31.673Z,308.00
2018-12-31T07:34:31.571Z,308.00
2018-12-31T07:35:31.531Z,308.00
2018-12-31T07:36:31.486Z,324.00
2018-12-31T07:37:31.556Z,368.00
2018-12-31T07:38:31.417Z,400.00
2018-12-31T07:39:31.369Z,424.00
2018-12-31T07:40:31.314Z,456.00
2018-12-31T07:41:31.286Z,480.00
2018-12-31T07:42:31.265Z,468.00
2018-12-31T07:43:31.195Z,436.00
2018-12-31T07:44:31.151Z,432.00
2018-12-31T07:45:31.129Z,448.00
2018-12-31T07:46:31.078Z,476.00
2018-12-31T07:47:31.068Z,532.00
2018-12-31T07:48:30.992Z,616.00
2018-12-31T07:49:30.953Z,712.00
2018-12-31T07:50:30.941Z,780.00
2018-12-31T07:51:30.863Z,840.00
2018-12-31T07:52:30.918Z,864.00
2018-12-31T07:53:30.785Z,860.00
2018-12-31T07:54:30.731Z,856.00
2018-12-31T07:55:30.698Z,872.00
2018-12-31T07:56:30.658Z,920.00
2018-12-31T07:57:30.606Z,960.00
2018-12-31T07:58:30.581Z,936.00
2018-12-31T07:59:30.533Z,912.00
2018-12-31T08:00:30.498Z,912.00
2018-12-31T08:01:30.461Z,916.00
2018-12-31T08:02:30.420Z,960.00
2018-12-31T08:03:30.372Z,1036.00
2018-12-31T08:04:30.333Z,1132.00
2018-12-31T08:05:30.279Z,1236.00
2018-12-31T08:06:30.233Z,1316.00
2018-12-31T08:07:30.303Z,1384.00
2018-12-31T08:08:30.168Z,1488.00
2018-12-31T08:09:30.134Z,1568.00
2018-12-31T08:10:30.108Z,1572.00
2018-12-31T08:11:30.041Z,1600.00
2018-12-31T08:12:29.992Z,1544.00
2018-12-31T08:13:29.950Z,1504.00
2018-12-31T08:14:29.942Z,1436.00
2018-12-31T08:15:29.870Z,1468.00
2018-12-31T08:16:29.866Z,1520.00
2018-12-31T08:17:29.795Z,1608.00
2018-12-31T08:18:29.825Z,1728.00
2018-12-31T08:19:29.749Z,1812.00
2018-12-31T08:20:29.745Z,1776.00
2018-12-31T08:21:29.654Z,1688.00
2018-12-31T08:22:30.692Z,1568.00
2018-12-31T08:23:29.667Z,1552.00
2018-12-31T08:24:29.629Z,1628.00
2018-12-31T08:25:30.314Z,1696.00
2018-12-31T08:26:29.572Z,1752.00
2018-12-31T08:27:29.403Z,1836.00
2018-12-31T08:28:29.813Z,1980.00
2018-12-31T08:29:29.482Z,2060.00
2018-12-31T08:30:29.504Z,2068.00
2018-12-31T08:31:29.573Z,2100.00
2018-12-31T08:32:29.949Z,2124.00
2018-12-31T08:33:29.260Z,2156.00
2018-12-31T08:34:29.104Z,2232.00
2018-12-31T08:35:29.052Z,2240.00
2018-12-31T08:36:29.024Z,2156.00
2018-12-31T08:37:28.980Z,2060.00
2018-12-31T08:38:28.955Z,2000.00
2018-12-31T08:39:28.929Z,1972.00
2018-12-31T08:40:28.841Z,1956.00
2018-12-31T08:41:28.799Z,1932.00
2018-12-31T08:42:28.759Z,1864.00
2018-12-31T08:43:28.723Z,1796.00
2018-12-31T08:44:28.681Z,1784.00
2018-12-31T08:45:28.653Z,1852.00
2018-12-31T08:46:28.705Z,1948.00
2018-12-31T08:47:28.773Z,2032.00
2018-12-31T08:48:28.659Z,2088.00
2018-12-31T08:49:28.572Z,2116.00
2018-12-31T08:50:28.529Z,2116.00
2018-12-31T08:51:28.419Z,2108.00
2018-12-31T08:52:28.478Z,2124.00
2018-12-31T08:53:28.371Z,2152.00
2018-12-31T08:54:29.330Z,2220.00
2018-12-31T08:55:28.384Z,2352.00
2018-12-31T08:57:23.897Z,2344.00
2018-12-31T08:58:23.144Z,2248.00
2018-12-31T09:00:24.238Z,2124.00
2018-12-31T09:01:20.786Z,2108.00
2018-12-31T09:02:23.060Z,2112.00
2018-12-31T09:03:20.796Z,2092.00
2018-12-31T09:05:14.301Z,2044.00
2018-12-31T09:06:14.228Z,2136.00
2018-12-31T09:08:08.962Z,2544.00
2018-12-31T09:09:08.660Z,2692.00
2018-12-31T09:11:03.208Z,2652.00
2018-12-31T09:12:03.185Z,2580.00
2018-12-31T09:13:56.783Z,2524.00
2018-12-31T09:14:56.665Z,2536.00
2018-12-31T09:16:50.236Z,2656.00
2018-12-31T09:17:50.111Z,2756.00
2018-12-31T09:19:43.876Z,2920.00
2018-12-31T09:20:43.797Z,2880.00
2018-12-31T09:21:43.675Z,2680.00
2018-12-31T09:22:43.617Z,2440.00
2018-12-31T09:23:43.558Z,2296.00
2018-12-31T09:24:44.732Z,2280.00
2018-12-31T09:25:43.412Z,2392.00
2018-12-31T09:26:43.387Z,2632.00
2018-12-31T09:27:43.344Z,2948.00
2018-12-31T09:28:43.301Z,3288.00
2018-12-31T09:29:43.319Z,3620.00
2018-12-31T09:30:43.258Z,3948.00
2018-12-31T09:31:43.191Z,4248.00
2018-12-31T09:32:44.308Z,4448.00
2018-12-31T09:33:43.557Z,4452.00
2018-12-31T09:34:43.069Z,4288.00
2018-12-31T09:35:43.002Z,4052.00
2018-12-31T09:36:42.971Z,3808.00
2018-12-31T09:37:42.980Z,3644.00
2018-12-31T09:38:44.076Z,3548.00
2018-12-31T09:39:42.914Z,3524.00
2018-12-31T09:40:43.116Z,3476.00
2018-12-31T09:41:42.843Z,3432.00
2018-12-31T09:42:42.722Z,3448.00
2018-12-31T09:43:42.706Z,3528.00
2018-12-31T09:44:42.686Z,3716.00
2018-12-31T09:45:42.615Z,3960.00
2018-12-31T09:46:42.623Z,4220.00
2018-12-31T09:47:42.633Z,4456.00
2018-12-31T09:48:42.545Z,4672.00
2018-12-31T09:49:42.451Z,5036.00
2018-12-31T09:50:42.406Z,5240.00
2018-12-31T09:51:42.469Z,5188.00
2018-12-31T09:52:42.501Z,5084.00
2018-12-31T09:53:42.378Z,4964.00
2018-12-31T09:54:42.377Z,4784.00
2018-12-31T09:55:42.302Z,4804.00
2018-12-31T09:56:42.188Z,4676.00
2018-12-31T09:57:42.167Z,4460.00
2018-12-31T09:58:42.094Z,4496.00
2018-12-31T09:59:42.056Z,4604.00
2018-12-31T10:00:42.015Z,4640.00
2018-12-31T10:01:41.935Z,4664.00
2018-12-31T10:02:41.894Z,4824.00
2018-12-31T10:03:41.922Z,5164.00
2018-12-31T10:04:41.835Z,5532.00
2018-12-31T10:05:41.803Z,5764.00
2018-12-31T10:06:41.776Z,5620.00
2018-12-31T10:07:41.892Z,5560.00
2018-12-31T10:08:49.013Z,5840.00
2018-12-31T10:09:41.631Z,6240.00
2018-12-31T10:10:41.676Z,6468.00
2018-12-31T10:11:41.589Z,6572.00
2018-12-31T10:12:41.512Z,6592.00
2018-12-31T10:13:41.516Z,6580.00
2018-12-31T10:14:41.454Z,6664.00
2018-12-31T10:15:41.402Z,6652.00
2018-12-31T10:16:41.389Z,6300.00
2018-12-31T10:17:41.314Z,5740.00
2018-12-31T10:18:41.315Z,5376.00
2018-12-31T10:19:41.235Z,5464.00
2018-12-31T10:20:41.190Z,5876.00
2018-12-31T10:21:41.313Z,6208.00
2018-12-31T10:22:41.101Z,6412.00
2018-12-31T10:23:41.126Z,6728.00
2018-12-31T10:24:41.111Z,7000.00
2018-12-31T10:25:41.193Z,7116.00
2018-12-31T10:26:40.950Z,7300.00
2018-12-31T10:27:40.914Z,7756.00
2018-12-31T10:28:40.885Z,8064.00
2018-12-31T10:29:40.840Z,7756.00
2018-12-31T10:30:40.808Z,7356.00
2018-12-31T10:31:40.751Z,6984.00
2018-12-31T10:32:40.839Z,6308.00
2018-12-31T10:33:40.677Z,5788.00
2018-12-31T10:34:40.743Z,5432.00
2018-12-31T10:35:40.619Z,5160.00
2018-12-31T10:36:40.538Z,4756.00
2018-12-31T10:37:40.536Z,4316.00
2018-12-31T10:38:40.474Z,4168.00
2018-12-31T10:39:40.433Z,4264.00
2018-12-31T10:40:40.407Z,4220.00
2018-12-31T10:41:40.495Z,4336.00
2018-12-31T10:42:40.346Z,4632.00
2018-12-31T10:43:40.320Z,4852.00
2018-12-31T10:44:40.231Z,5544.00
2018-12-31T10:45:40.225Z,5988.00
2018-12-31T10:46:40.200Z,5736.00
2018-12-31T10:47:40.088Z,5596.00
2018-12-31T10:48:40.037Z,5800.00
2018-12-31T10:49:40.023Z,5944.00
2018-12-31T10:50:39.978Z,5992.00
2018-12-31T10:51:40.081Z,5828.00
2018-12-31T10:52:39.897Z,5912.00
2018-12-31T10:53:39.926Z,6496.00
2018-12-31T10:54:39.829Z,7152.00
2018-12-31T10:55:39.776Z,7176.00
2018-12-31T10:56:39.727Z,7084.00
2018-12-31T10:57:39.697Z,7364.00
2018-12-31T10:58:39.716Z,7600.00
2018-12-31T10:59:39.724Z,7316.00
2018-12-31T11:00:39.624Z,6960.00
2018-12-31T11:01:39.939Z,7052.00
2018-12-31T11:02:39.500Z,7652.00
2018-12-31T11:03:39.544Z,8312.00
2018-12-31T11:04:39.460Z,8036.00
2018-12-31T11:05:39.391Z,6868.00
2018-12-31T11:06:39.434Z,6116.00
2018-12-31T11:07:39.363Z,6160.00
2018-12-31T11:08:39.371Z,6424.00
2018-12-31T11:09:39.238Z,7360.00
2018-12-31T11:10:39.181Z,8616.00
2018-12-31T11:11:39.198Z,8904.00
2018-12-31T11:12:39.088Z,8912.00
2018-12-31T11:13:39.080Z,10564.00
2018-12-31T11:14:39.314Z,12764.00
2018-12-31T11:15:39.013Z,12956.00
2018-12-31T11:16:39.671Z,11292.00
2018-12-31T11:17:39.084Z,9420.00
2018-12-31T11:18:38.884Z,7656.00
2018-12-31T11:19:38.799Z,6388.00
2018-12-31T11:20:38.746Z,5308.00
2018-12-31T11:21:38.743Z,4716.00
2018-12-31T11:22:38.765Z,5152.00
2018-12-31T11:23:38.644Z,6220.00
2018-12-31T11:24:38.697Z,7672.00
2018-12-31T11:25:38.614Z,8884.00
2018-12-31T11:26:38.627Z,9408.00
2018-12-31T11:27:38.488Z,9492.00
2018-12-31T11:28:38.527Z,9712.00
2018-12-31T11:29:38.465Z,9672.00
2018-12-31T11:30:38.422Z,9968.00
2018-12-31T11:31:38.309Z,11512.00
2018-12-31T11:32:38.273Z,13744.00
2018-12-31T11:33:38.247Z,15352.00
2018-12-31T11:34:38.355Z,15668.00
2018-12-31T11:35:38.188Z,15272.00
2018-12-31T11:36:38.203Z,13988.00
2018-12-31T11:37:38.185Z,13332.00
2018-12-31T11:38:38.033Z,12732.00
2018-12-31T11:39:37.989Z,11692.00
2018-12-31T11:40:37.974Z,10676.00
2018-12-31T11:41:37.923Z,10408.00
2018-12-31T11:42:37.884Z,10644.00
2018-12-31T11:43:37.870Z,10452.00
2018-12-31T11:44:37.864Z,10256.00
2018-12-31T11:45:37.873Z,11320.00
2018-12-31T11:46:37.766Z,13088.00
2018-12-31T11:47:37.670Z,13092.00
2018-12-31T11:48:37.623Z,12516.00
2018-12-31T11:49:37.598Z,12324.00
2018-12-31T11:50:37.574Z,11936.00
2018-12-31T11:51:37.518Z,11460.00
2018-12-31T11:52:37.483Z,11404.00
2018-12-31T11:53:37.516Z,11060.00
2018-12-31T11:54:37.394Z,9260.00
2018-12-31T11:55:37.372Z,7076.00
2018-12-31T11:56:37.460Z,6116.00
2018-12-31T11:57:38.084Z,6132.00
2018-12-31T11:58:37.245Z,6500.00
2018-12-31T11:59:37.228Z,6732.00
2018-12-31T12:00:38.092Z,6848.00
2018-12-31T12:02:55.023Z,6144.00
2018-12-31T12:03:51.168Z,5668.00
2018-12-31T12:05:55.975Z,4912.00
2018-12-31T12:06:55.887Z,4668.00
2018-12-31T12:07:55.837Z,4624.00
2018-12-31T12:08:55.792Z,4728.00
2018-12-31T12:09:55.754Z,5100.00
2018-12-31T12:10:55.755Z,5500.00
2018-12-31T12:11:55.667Z,5448.00
2018-12-31T12:12:55.630Z,5136.00
2018-12-31T12:14:02.170Z,5224.00
2018-12-31T12:14:55.555Z,5920.00
2018-12-31T12:16:48.705Z,6928.00
2018-12-31T12:17:48.635Z,7332.00
2018-12-31T12:19:41.772Z,7308.00
2018-12-31T12:20:41.647Z,7056.00
2018-12-31T12:21:41.593Z,6728.00
2018-12-31T12:23:03.176Z,6004.00
2018-12-31T12:23:41.533Z,5584.00
2018-12-31T12:25:39.330Z,6776.00
2018-12-31T12:26:34.962Z,7508.00
2018-12-31T12:27:36.430Z,7740.00
2018-12-31T12:28:34.536Z,7284.00
2018-12-31T12:29:34.488Z,6792.00
2018-12-31T12:30:34.447Z,6648.00
2018-12-31T12:31:34.441Z,6216.00
2018-12-31T12:32:34.403Z,5860.00
2018-12-31T12:33:34.330Z,6052.00
2018-12-31T12:34:34.305Z,6856.00
2018-12-31T12:35:34.341Z,7960.00
2018-12-31T12:36:34.221Z,9132.00
2018-12-31T12:37:34.189Z,10072.00
2018-12-31T12:38:34.149Z,10624.00
2018-12-31T12:39:34.110Z,10596.00
2018-12-31T12:40:34.088Z,10272.00
2018-12-31T12:41:34.056Z,9992.00
2018-12-31T12:42:33.971Z,10208.00
2018-12-31T12:43:33.964Z,10716.00
2018-12-31T12:44:33.913Z,11352.00
2018-12-31T12:45:33.860Z,11764.00
2018-12-31T12:46:33.845Z,11928.00
2018-12-31T12:47:33.877Z,11768.00
2018-12-31T12:48:33.800Z,11228.00
2018-12-31T12:49:33.712Z,10512.00
2018-12-31T12:50:33.729Z,9856.00
2018-12-31T12:51:33.624Z,9064.00
2018-12-31T12:52:33.586Z,8052.00
2018-12-31T12:53:33.563Z,7040.00
2018-12-31T12:54:33.511Z,6524.00
2018-12-31T12:55:33.470Z,6268.00
2018-12-31T12:56:33.421Z,6312.00
2018-12-31T12:57:33.397Z,6472.00